Terminal Aerodrome Forecast
Issued by NWS

Home | Current Version | Previous Version | Text Only | Print | Product List | Glossary On
Versions: 1 2 3 4 5 6 7 8 9 10 11 12 13 14 15 16 17 18 19
000
FTAK31 PAJN 291700
TAFAKT
TAF
PAKT 291734Z 2918/3018 14012G20KT P6SM -SHRA BKN015 OVC030
      WS020/16035KT
      TEMPO 2918/2922 14015G25KT -TSRA BKN015 OVC025CB
     FM292200 14015G22KT 5SM -SHRA BR FEW015 OVC030
      TEMPO 2922/3002 14015G25KT -TSRA BKN015 OVC030CB
     FM300600 14008KT 6SM -SHRA BKN015 OVC030
      AMD LTD TO CLD VIS AND WIND 3006/3015=

USA.gov is the U.S. government's official web portal to all federal, state and local government web resources and services.